createdAt,value
2022-10-20T00:01:22.120Z,17.35
2022-10-20T00:02:53.772Z,12.13
2022-10-20T00:04:25.558Z,11.35
2022-10-20T00:06:06.422Z,12.43
2022-10-20T00:07:38.001Z,11.50
2022-10-20T00:09:09.729Z,12.95
2022-10-20T00:10:41.481Z,12.52
2022-10-20T00:12:13.112Z,12.00
2022-10-20T00:13:45.667Z,11.38
2022-10-20T00:15:17.480Z,10.85
2022-10-20T00:16:50.462Z,11.05
2022-10-20T00:18:22.387Z,10.05
2022-10-20T00:19:54.094Z,11.75
2022-10-20T00:21:27.027Z,12.38
2022-10-20T00:22:58.667Z,13.25
2022-10-20T00:24:30.311Z,14.82
2022-10-20T00:26:02.577Z,13.18
2022-10-20T00:27:34.203Z,12.48
2022-10-20T00:29:05.924Z,13.23
2022-10-20T00:30:37.832Z,12.85
2022-10-20T00:32:10.810Z,14.88
2022-10-20T00:33:42.447Z,12.05
2022-10-20T00:35:14.233Z,13.05
2022-10-20T00:36:50.310Z,16.83
2022-10-20T00:38:23.204Z,15.90
2022-10-20T00:39:54.808Z,13.02
2022-10-20T00:41:26.596Z,12.60
2022-10-20T00:42:58.223Z,13.10
2022-10-20T00:44:50.615Z,12.13
2022-10-20T00:46:23.501Z,14.13
2022-10-20T00:47:58.103Z,12.57
2022-10-20T00:49:29.740Z,11.07
2022-10-20T00:51:01.343Z,11.40
2022-10-20T00:52:33.262Z,13.00
2022-10-20T00:54:07.251Z,13.82
2022-10-20T00:55:40.715Z,14.48
2022-10-20T00:57:12.320Z,11.10
2022-10-20T00:58:43.972Z,12.55
2022-10-20T01:00:15.632Z,14.25
2022-10-20T01:01:47.308Z,11.30
2022-10-20T01:03:35.802Z,15.15
2022-10-20T01:05:08.490Z,13.05
2022-10-20T01:06:40.173Z,12.23
2022-10-20T01:08:11.835Z,13.82
2022-10-20T01:09:43.493Z,11.38
2022-10-20T01:11:19.877Z,13.75
2022-10-20T01:12:53.560Z,13.50
2022-10-20T01:14:31.175Z,14.05
2022-10-20T01:16:05.873Z,11.82
2022-10-20T01:17:42.521Z,11.25
2022-10-20T01:19:49.741Z,12.80
2022-10-20T01:21:27.674Z,15.23
2022-10-20T01:23:11.123Z,12.25
2022-10-20T01:24:48.068Z,10.52
2022-10-20T01:26:42.034Z,11.38
2022-10-20T01:28:16.363Z,14.43
2022-10-20T01:29:49.379Z,12.38
2022-10-20T01:31:31.881Z,13.20
2022-10-20T01:33:11.442Z,11.90
2022-10-20T01:34:49.234Z,15.88
2022-10-20T01:36:27.325Z,13.73
2022-10-20T01:38:04.481Z,13.20
2022-10-20T01:39:38.257Z,11.43
2022-10-20T01:41:10.747Z,13.18
2022-10-20T01:42:42.347Z,15.60
2022-10-20T01:44:15.601Z,13.85
2022-10-20T01:45:47.961Z,16.27
2022-10-20T01:47:19.581Z,13.50
2022-10-20T01:48:51.615Z,14.18
2022-10-20T01:50:23.270Z,13.73
2022-10-20T01:51:55.040Z,14.95
2022-10-20T01:53:26.684Z,15.35
2022-10-20T01:54:58.315Z,14.20
2022-10-20T01:56:33.443Z,13.43
2022-10-20T01:58:16.042Z,14.40
2022-10-20T01:59:54.446Z,13.38
2022-10-20T02:01:30.885Z,12.88
2022-10-20T02:03:10.657Z,13.90
2022-10-20T02:04:49.885Z,13.25
2022-10-20T02:06:31.882Z,11.60
2022-10-20T02:08:08.968Z,12.45
2022-10-20T02:09:41.434Z,16.42
2022-10-20T02:11:17.902Z,11.85
2022-10-20T02:12:50.841Z,14.10
2022-10-20T02:14:22.512Z,12.02
2022-10-20T02:15:56.941Z,13.98
2022-10-20T02:17:28.553Z,13.20
2022-10-20T02:19:00.394Z,14.00
2022-10-20T02:20:33.342Z,12.00
2022-10-20T02:22:04.997Z,12.75
2022-10-20T02:23:37.852Z,12.13
2022-10-20T02:25:10.674Z,11.27
2022-10-20T02:26:42.374Z,12.02
2022-10-20T02:28:13.967Z,12.77
2022-10-20T02:29:47.155Z,14.50
2022-10-20T02:31:20.304Z,15.70
2022-10-20T02:32:52.818Z,15.93
2022-10-20T02:34:25.648Z,14.25
2022-10-20T02:35:58.308Z,14.60
2022-10-20T02:37:29.889Z,13.18
2022-10-20T02:39:01.487Z,13.50
2022-10-20T02:40:33.096Z,15.13
2022-10-20T02:42:04.718Z,12.73
2022-10-20T02:43:36.316Z,12.85
2022-10-20T02:45:08.908Z,16.77
2022-10-20T02:46:41.880Z,14.23
2022-10-20T02:48:13.482Z,11.50
2022-10-20T02:49:45.104Z,11.23
2022-10-20T02:51:17.421Z,11.00
2022-10-20T02:52:49.108Z,12.57
2022-10-20T02:54:20.947Z,13.18
2022-10-20T02:55:52.628Z,14.80
2022-10-20T02:57:24.332Z,13.02
2022-10-20T02:58:55.908Z,12.88
2022-10-20T03:00:30.994Z,13.98
2022-10-20T03:02:03.987Z,15.85
2022-10-20T03:03:35.628Z,16.10
2022-10-20T03:05:07.767Z,13.23
2022-10-20T03:06:39.436Z,13.02
2022-10-20T03:08:11.082Z,12.60
2022-10-20T03:09:44.175Z,11.95
2022-10-20T03:11:15.751Z,10.73
2022-10-20T03:12:47.348Z,11.30
2022-10-20T03:14:18.981Z,13.80
2022-10-20T03:15:50.555Z,14.30
2022-10-20T03:17:23.632Z,12.05
2022-10-20T03:18:58.741Z,14.70
2022-10-20T03:20:33.255Z,13.55
2022-10-20T03:22:04.840Z,15.20
2022-10-20T03:23:36.401Z,14.20
2022-10-20T03:25:08.064Z,13.90
2022-10-20T03:26:39.652Z,15.55
2022-10-20T03:28:11.270Z,14.00
2022-10-20T03:29:42.864Z,13.10
2022-10-20T03:31:14.466Z,12.93
2022-10-20T03:32:47.588Z,13.10
2022-10-20T03:34:19.176Z,12.35
2022-10-20T03:35:50.804Z,17.48
2022-10-20T03:37:22.421Z,15.60
2022-10-20T03:38:54.037Z,12.55
2022-10-20T03:40:25.702Z,13.27
2022-10-20T03:41:57.899Z,13.25
2022-10-20T03:43:29.479Z,12.23
2022-10-20T03:45:01.086Z,12.95
2022-10-20T03:46:32.716Z,11.73
2022-10-20T03:48:06.209Z,13.13
2022-10-20T03:49:37.877Z,14.13
2022-10-20T03:51:10.521Z,13.70
2022-10-20T03:52:42.177Z,11.50
2022-10-20T03:54:13.779Z,12.68
2022-10-20T03:55:45.398Z,12.93
2022-10-20T03:57:17.005Z,16.80
2022-10-20T03:58:48.644Z,16.35
2022-10-20T04:00:20.598Z,15.82
2022-10-20T04:01:52.216Z,14.95
2022-10-20T04:03:25.179Z,18.90
2022-10-20T04:04:56.880Z,14.45
2022-10-20T04:06:28.578Z,14.55
2022-10-20T04:08:00.273Z,14.02
2022-10-20T04:09:31.887Z,13.95
2022-10-20T04:11:03.572Z,13.98
2022-10-20T04:12:35.423Z,15.23
2022-10-20T04:14:07.264Z,13.43
2022-10-20T04:15:38.880Z,13.50
2022-10-20T04:17:10.480Z,17.52
2022-10-20T04:18:43.459Z,13.07
2022-10-20T04:20:15.042Z,13.63
2022-10-20T04:21:46.719Z,16.70
2022-10-20T04:23:18.347Z,13.00
2022-10-20T04:24:49.964Z,13.43
2022-10-20T04:26:21.573Z,15.20
2022-10-20T04:27:53.153Z,16.48
2022-10-20T04:29:24.892Z,15.18
2022-10-20T04:30:59.271Z,13.18
2022-10-20T04:32:30.925Z,13.60
2022-10-20T04:34:03.910Z,15.30
2022-10-20T04:35:35.646Z,17.10
2022-10-20T04:37:07.331Z,15.35
2022-10-20T04:38:38.943Z,12.50
2022-10-20T04:40:11.504Z,18.27
2022-10-20T04:41:43.156Z,21.52
2022-10-20T04:43:14.820Z,20.35
2022-10-20T04:44:46.593Z,17.75
2022-10-20T04:46:18.322Z,18.65
2022-10-20T04:47:49.904Z,16.83
2022-10-20T04:49:23.074Z,23.55
2022-10-20T04:51:00.476Z,20.30
2022-10-20T04:52:32.138Z,22.13
2022-10-20T04:55:35.464Z,19.27
2022-10-20T04:57:07.079Z,18.27
2022-10-20T04:58:38.657Z,23.25
2022-10-20T05:00:11.185Z,18.98
2022-10-20T05:01:42.842Z,17.08
2022-10-20T05:03:14.526Z,22.52
2022-10-20T05:04:47.779Z,19.83
2022-10-20T05:06:20.208Z,18.77
2022-10-20T05:07:51.814Z,23.67
2022-10-20T05:09:23.428Z,17.77
2022-10-20T05:10:55.050Z,18.05
2022-10-20T05:12:27.930Z,23.50
2022-10-20T05:13:59.672Z,21.63
2022-10-20T05:15:31.294Z,18.25
2022-10-20T05:17:05.240Z,20.63
2022-10-20T05:18:39.632Z,23.65
2022-10-20T05:20:12.622Z,21.58
2022-10-20T05:21:44.285Z,27.88
2022-10-20T05:23:15.899Z,21.92
2022-10-20T05:24:47.547Z,22.23
2022-10-20T05:26:19.246Z,21.80
2022-10-20T05:27:50.857Z,23.83
2022-10-20T05:29:22.529Z,30.50
2022-10-20T05:30:55.648Z,29.83
2022-10-20T05:32:29.513Z,20.23
2022-10-20T05:34:01.230Z,18.10
2022-10-20T05:35:34.192Z,18.40
2022-10-20T05:37:05.776Z,18.88
2022-10-20T05:38:37.648Z,20.08
2022-10-20T05:40:10.363Z,21.27
2022-10-20T05:41:41.971Z,18.58
2022-10-20T05:43:15.867Z,19.00
2022-10-20T05:44:47.676Z,19.10
2022-10-20T05:46:19.444Z,24.48
2022-10-20T05:47:51.059Z,21.83
2022-10-20T05:49:23.518Z,22.65
2022-10-20T05:50:56.473Z,19.85
2022-10-20T05:52:28.087Z,16.95
2022-10-20T05:53:59.782Z,18.25
2022-10-20T05:55:31.471Z,19.98
2022-10-20T05:57:03.357Z,23.17
2022-10-20T05:58:35.075Z,20.77
2022-10-20T06:00:08.082Z,19.67
2022-10-20T06:01:49.027Z,27.10
2022-10-20T06:03:23.758Z,16.92
2022-10-20T06:05:00.624Z,26.30
2022-10-20T06:06:33.648Z,19.05
2022-10-20T06:08:05.585Z,18.52
2022-10-20T06:09:37.522Z,17.63
2022-10-20T06:11:10.090Z,19.95
2022-10-20T06:12:41.696Z,20.13
2022-10-20T06:14:13.429Z,21.83
2022-10-20T06:15:47.547Z,19.67
2022-10-20T06:17:19.179Z,16.60
2022-10-20T06:18:50.798Z,19.17
2022-10-20T06:20:22.410Z,19.10
2022-10-20T06:21:55.459Z,18.05
2022-10-20T06:23:27.040Z,19.13
2022-10-20T06:24:58.649Z,18.00
2022-10-20T06:26:32.826Z,17.45
2022-10-20T06:28:04.681Z,19.60
2022-10-20T06:29:36.280Z,19.40
2022-10-20T06:31:12.013Z,15.60
2022-10-20T06:32:43.661Z,18.35
2022-10-20T06:34:15.996Z,17.92
2022-10-20T06:35:47.595Z,21.38
2022-10-20T06:37:20.589Z,20.83
2022-10-20T06:38:55.608Z,20.25
2022-10-20T06:40:27.218Z,26.90
2022-10-20T06:41:58.853Z,24.42
2022-10-20T06:43:33.300Z,28.60
2022-10-20T06:45:05.992Z,25.42
2022-10-20T06:46:37.794Z,22.33
2022-10-20T06:48:09.385Z,25.77
2022-10-20T06:49:41.019Z,24.08
2022-10-20T06:51:13.530Z,24.63
2022-10-20T06:52:46.492Z,21.75
2022-10-20T06:54:18.161Z,24.13
2022-10-20T06:55:55.840Z,26.33
2022-10-20T06:57:27.424Z,24.00
2022-10-20T06:58:59.310Z,25.52
2022-10-20T07:02:02.529Z,27.05
2022-10-20T07:03:35.087Z,22.77
2022-10-20T07:05:07.610Z,21.67
2022-10-20T07:06:40.358Z,20.80
2022-10-20T07:08:13.281Z,22.73
2022-10-20T07:09:44.881Z,21.25
2022-10-20T07:11:17.489Z,24.00
2022-10-20T07:12:49.146Z,27.60
2022-10-20T07:14:21.058Z,24.20
2022-10-20T07:15:53.333Z,23.60
2022-10-20T07:17:24.895Z,32.35
2022-10-20T07:18:57.346Z,26.92
2022-10-20T07:20:28.999Z,22.95
2022-10-20T07:22:00.738Z,24.50
2022-10-20T07:23:34.239Z,27.20
2022-10-20T07:25:07.194Z,29.83
2022-10-20T07:26:39.662Z,27.38
2022-10-20T07:28:11.375Z,24.55
2022-10-20T07:29:43.043Z,24.20
2022-10-20T07:31:15.887Z,23.13
2022-10-20T07:32:47.527Z,27.92
2022-10-20T07:34:25.843Z,23.92
2022-10-20T07:35:58.269Z,27.60
2022-10-20T07:37:29.873Z,27.00
2022-10-20T07:39:04.313Z,23.85
2022-10-20T07:40:35.941Z,23.67
2022-10-20T07:42:07.529Z,25.35
2022-10-20T07:43:39.318Z,26.88
2022-10-20T07:45:11.255Z,25.17
2022-10-20T07:46:42.911Z,22.70
2022-10-20T07:48:14.541Z,24.90
2022-10-20T07:49:46.163Z,27.25
2022-10-20T07:51:30.339Z,27.00
2022-10-20T07:53:01.945Z,21.88
2022-10-20T07:54:35.102Z,23.17
2022-10-20T07:56:07.049Z,21.15
2022-10-20T07:57:38.730Z,22.52
2022-10-20T07:59:10.698Z,19.65
2022-10-20T08:00:42.410Z,22.95
2022-10-20T08:02:15.747Z,21.50
2022-10-20T08:03:47.569Z,29.08
2022-10-20T08:05:19.224Z,22.73
2022-10-20T08:06:50.835Z,21.38
2022-10-20T08:08:22.464Z,21.05
2022-10-20T08:09:55.403Z,23.77
2022-10-20T08:11:27.025Z,20.10
2022-10-20T08:12:58.591Z,25.23
2022-10-20T08:14:35.105Z,20.90
2022-10-20T08:16:09.243Z,23.55
2022-10-20T08:17:40.972Z,29.35
2022-10-20T08:19:21.731Z,25.67
2022-10-20T08:20:53.295Z,25.08
2022-10-20T08:22:24.993Z,25.40
2022-10-20T08:23:56.642Z,24.63
2022-10-20T08:25:29.624Z,25.02
2022-10-20T08:27:01.316Z,23.60
2022-10-20T08:28:33.352Z,25.63
2022-10-20T08:30:22.846Z,23.52
2022-10-20T08:31:55.303Z,23.83
2022-10-20T08:33:26.964Z,23.42
2022-10-20T08:34:58.592Z,24.60
2022-10-20T08:36:30.208Z,24.80
2022-10-20T08:38:01.865Z,22.17
2022-10-20T08:39:33.597Z,24.83
2022-10-20T08:41:12.419Z,26.83
2022-10-20T08:42:47.064Z,27.83
2022-10-20T08:44:21.775Z,25.15
2022-10-20T08:45:53.359Z,25.38
2022-10-20T08:47:29.168Z,28.08
2022-10-20T08:49:05.531Z,29.35
2022-10-20T08:50:37.178Z,26.80
2022-10-20T08:52:09.782Z,28.15
2022-10-20T08:53:41.438Z,26.73
2022-10-20T08:55:23.494Z,27.27
2022-10-20T08:56:56.486Z,25.52
2022-10-20T08:58:28.168Z,35.72
2022-10-20T09:00:05.704Z,26.55
2022-10-20T09:01:39.868Z,25.27
2022-10-20T09:03:14.585Z,30.85
2022-10-20T09:04:48.023Z,30.63
2022-10-20T09:06:19.635Z,58.30
2022-10-20T09:07:51.456Z,31.42
2022-10-20T09:09:23.185Z,29.38
2022-10-20T09:10:55.225Z,44.63
2022-10-20T09:12:31.034Z,29.45
2022-10-20T09:14:02.875Z,25.88
2022-10-20T09:15:34.499Z,33.85
2022-10-20T09:17:09.118Z,28.98
2022-10-20T09:18:43.050Z,27.48
2022-10-20T09:20:17.545Z,46.22
2022-10-20T09:21:51.270Z,33.70
2022-10-20T09:23:40.542Z,39.20
2022-10-20T09:25:13.431Z,31.60
2022-10-20T09:26:58.079Z,33.28
2022-10-20T09:28:42.891Z,30.33
2022-10-20T09:30:20.920Z,29.33
2022-10-20T09:31:54.173Z,33.55
2022-10-20T09:33:28.990Z,28.27
2022-10-20T09:35:12.359Z,32.60
2022-10-20T09:36:43.984Z,27.63
2022-10-20T09:38:17.746Z,30.25
2022-10-20T09:39:55.218Z,26.90
2022-10-20T09:41:29.416Z,26.77
2022-10-20T09:43:02.727Z,26.08
2022-10-20T09:44:39.701Z,28.33
2022-10-20T09:46:11.308Z,23.27
2022-10-20T09:47:43.385Z,43.80
2022-10-20T09:49:25.298Z,36.72
2022-10-20T09:50:57.122Z,34.85
2022-10-20T09:52:35.057Z,48.72
2022-10-20T09:54:08.119Z,69.53
2022-10-20T09:55:42.348Z,112.00
2022-10-20T09:57:17.275Z,63.22
2022-10-20T09:58:48.904Z,46.50
2022-10-20T10:00:36.257Z,41.22
2022-10-20T10:02:27.276Z,34.70
2022-10-20T10:04:02.199Z,44.33
2022-10-20T10:05:34.256Z,36.22
2022-10-20T10:07:10.950Z,50.35
2022-10-20T10:08:44.801Z,59.10
2022-10-20T10:10:24.824Z,94.60
2022-10-20T10:12:00.714Z,30.42
2022-10-20T10:13:42.457Z,35.05
2022-10-20T10:15:26.697Z,31.65
2022-10-20T10:16:58.389Z,32.05
2022-10-20T10:18:30.054Z,44.42
2022-10-20T10:20:01.701Z,25.02
2022-10-20T10:21:43.689Z,25.02
2022-10-20T10:23:22.009Z,31.55
2022-10-20T10:24:55.951Z,24.63
2022-10-20T10:26:35.055Z,29.13
2022-10-20T10:28:20.870Z,27.48
2022-10-20T10:29:52.787Z,24.38
2022-10-20T10:31:26.208Z,28.35
2022-10-20T10:32:57.874Z,29.77
2022-10-20T10:34:40.720Z,28.10
2022-10-20T10:36:15.845Z,25.55
2022-10-20T10:37:47.489Z,22.75
2022-10-20T10:39:19.114Z,22.00
2022-10-20T10:40:54.691Z,23.15
2022-10-20T10:42:46.420Z,24.88
2022-10-20T10:44:22.576Z,24.98
2022-10-20T10:45:56.752Z,23.40
2022-10-20T10:47:44.454Z,22.48
2022-10-20T10:49:42.121Z,26.50
2022-10-20T10:51:19.018Z,23.00
2022-10-20T10:52:53.377Z,23.73
2022-10-20T10:54:32.080Z,23.33
2022-10-20T10:57:45.202Z,21.92
2022-10-20T10:59:20.431Z,27.17
2022-10-20T11:00:58.497Z,24.00
2022-10-20T11:02:58.370Z,28.25
2022-10-20T11:04:53.379Z,25.60
2022-10-20T11:06:27.492Z,26.08
2022-10-20T11:08:04.425Z,27.70
2022-10-20T11:09:38.827Z,24.27
2022-10-20T11:11:16.509Z,26.95
2022-10-20T11:12:59.870Z,21.60
2022-10-20T11:14:35.787Z,25.08
2022-10-20T11:16:15.525Z,27.88
2022-10-20T11:17:50.570Z,25.77
2022-10-20T11:19:37.255Z,23.15
2022-10-20T11:21:18.416Z,22.80
2022-10-20T11:23:01.269Z,26.95
2022-10-20T11:24:43.481Z,25.10
2022-10-20T11:26:19.180Z,23.83
2022-10-20T11:27:50.752Z,24.40
2022-10-20T11:29:27.201Z,25.75
2022-10-20T11:30:59.133Z,23.98
2022-10-20T11:32:33.541Z,23.00
2022-10-20T11:34:06.712Z,29.25
2022-10-20T11:35:42.726Z,24.65
2022-10-20T11:37:18.115Z,23.10
2022-10-20T11:38:50.863Z,26.67
2022-10-20T11:40:23.135Z,24.30
2022-10-20T11:41:58.280Z,25.05
2022-10-20T11:43:32.604Z,28.80
2022-10-20T11:45:22.109Z,26.52
2022-10-20T11:46:54.936Z,27.80
2022-10-20T11:48:29.778Z,24.05
2022-10-20T11:50:03.411Z,25.05
2022-10-20T11:52:07.299Z,22.73
2022-10-20T11:53:55.506Z,27.85
2022-10-20T11:55:34.991Z,25.27
2022-10-20T11:57:12.180Z,25.55
2022-10-20T11:59:01.451Z,24.20
2022-10-20T12:00:39.538Z,26.33
2022-10-20T12:02:20.961Z,22.85
2022-10-20T12:04:11.537Z,22.85
2022-10-20T12:05:54.518Z,21.92
2022-10-20T12:07:36.679Z,25.95
2022-10-20T12:09:27.457Z,24.85
2022-10-20T12:11:02.752Z,24.92
2022-10-20T12:12:36.542Z,26.73
2022-10-20T12:14:12.907Z,23.23
2022-10-20T12:15:45.353Z,24.08
2022-10-20T12:17:39.858Z,22.80
2022-10-20T12:19:16.227Z,25.77
2022-10-20T12:20:49.450Z,23.60
2022-10-20T12:22:41.326Z,25.77
2022-10-20T12:24:32.840Z,26.48
2022-10-20T12:26:04.558Z,25.42
2022-10-20T12:27:36.245Z,26.33
2022-10-20T12:29:40.456Z,28.60
2022-10-20T12:31:12.125Z,25.63
2022-10-20T12:32:58.423Z,25.58
2022-10-20T12:34:30.085Z,27.13
2022-10-20T12:36:14.101Z,26.55
2022-10-20T12:37:54.057Z,27.15
2022-10-20T12:39:28.129Z,24.85
2022-10-20T12:41:01.501Z,21.70
2022-10-20T12:42:33.987Z,22.08
2022-10-20T12:44:06.093Z,27.35
2022-10-20T12:45:40.655Z,22.70
2022-10-20T12:47:18.890Z,23.92
2022-10-20T12:48:56.609Z,22.85
2022-10-20T12:50:31.680Z,24.27
2022-10-20T12:52:03.996Z,27.02
2022-10-20T12:53:35.747Z,24.30
2022-10-20T12:55:08.763Z,24.25
2022-10-20T12:56:41.798Z,26.98
2022-10-20T12:58:30.894Z,25.67
2022-10-20T13:00:04.098Z,24.13
2022-10-20T13:02:09.211Z,25.38
2022-10-20T13:03:44.020Z,24.08
2022-10-20T13:05:46.129Z,23.90
2022-10-20T13:07:40.300Z,24.35
2022-10-20T13:09:33.018Z,26.88
2022-10-20T13:11:33.455Z,23.08
2022-10-20T13:13:42.988Z,23.73
2022-10-20T13:15:14.613Z,26.95
2022-10-20T13:16:47.550Z,27.48
2022-10-20T13:18:21.840Z,25.25
2022-10-20T13:20:01.295Z,24.05
2022-10-20T13:21:34.359Z,28.90
2022-10-20T13:23:06.003Z,24.52
2022-10-20T13:24:42.687Z,28.73
2022-10-20T13:26:20.035Z,26.55
2022-10-20T13:27:51.638Z,26.25
2022-10-20T13:29:27.756Z,24.98
2022-10-20T13:31:15.253Z,24.67
2022-10-20T13:33:10.814Z,24.38
2022-10-20T13:34:45.533Z,28.33
2022-10-20T13:36:32.797Z,27.08
2022-10-20T13:38:06.904Z,26.27
2022-10-20T13:39:43.614Z,26.65
2022-10-20T13:41:18.036Z,21.48
2022-10-20T13:42:55.551Z,26.10
2022-10-20T13:44:32.062Z,25.33
2022-10-20T13:46:14.010Z,26.38
2022-10-20T13:47:48.583Z,25.70
2022-10-20T13:49:32.136Z,26.08
2022-10-20T13:51:04.510Z,25.17
2022-10-20T13:52:39.162Z,26.73
2022-10-20T13:54:15.885Z,22.88
2022-10-20T13:55:55.768Z,25.73
2022-10-20T13:57:28.065Z,21.73
2022-10-20T13:59:05.264Z,27.45
2022-10-20T14:00:39.015Z,21.40
2022-10-20T14:02:23.418Z,24.58
2022-10-20T14:03:55.131Z,25.35
2022-10-20T14:05:27.367Z,26.77
2022-10-20T14:07:02.537Z,22.75
2022-10-20T14:08:42.676Z,23.98
2022-10-20T14:10:21.827Z,23.58
2022-10-20T14:11:55.040Z,26.83
2022-10-20T14:13:28.595Z,26.77
2022-10-20T14:15:02.214Z,25.27
2022-10-20T14:16:37.628Z,28.17
2022-10-20T14:18:20.531Z,24.38
2022-10-20T14:19:58.930Z,21.83
2022-10-20T14:21:30.680Z,23.83
2022-10-20T14:23:02.442Z,29.85
2022-10-20T14:24:35.197Z,25.35
2022-10-20T14:26:07.517Z,26.13
2022-10-20T14:27:39.440Z,30.38
2022-10-20T14:29:12.548Z,28.42
2022-10-20T14:30:44.204Z,32.30
2022-10-20T14:32:18.268Z,28.20
2022-10-20T14:33:51.015Z,31.23
2022-10-20T14:35:26.962Z,29.98
2022-10-20T14:36:58.699Z,29.52
2022-10-20T14:38:31.840Z,28.85
2022-10-20T14:40:05.105Z,28.20
2022-10-20T14:41:36.819Z,28.42
2022-10-20T14:43:13.326Z,27.67
2022-10-20T14:44:44.999Z,31.80
2022-10-20T14:46:24.038Z,30.30
2022-10-20T14:47:58.581Z,33.13
2022-10-20T14:49:31.435Z,33.13
2022-10-20T14:51:03.612Z,31.65
2022-10-20T14:52:37.289Z,30.17
2022-10-20T14:54:17.191Z,32.85
2022-10-20T14:55:48.862Z,28.80
2022-10-20T14:57:32.165Z,30.27
2022-10-20T14:59:03.762Z,31.25
2022-10-20T15:00:35.823Z,30.50
2022-10-20T15:02:11.804Z,33.63
2022-10-20T15:03:45.100Z,25.75
2022-10-20T15:05:21.225Z,33.20
2022-10-20T15:07:02.412Z,28.27
2022-10-20T15:08:34.044Z,28.35
2022-10-20T15:10:06.815Z,30.05
2022-10-20T15:11:38.450Z,29.85
2022-10-20T15:13:23.669Z,27.83
2022-10-20T15:15:03.659Z,34.63
2022-10-20T15:16:41.343Z,31.67
2022-10-20T15:18:14.757Z,30.88
2022-10-20T15:19:47.763Z,31.05
2022-10-20T15:21:19.365Z,34.67
2022-10-20T15:22:53.427Z,31.98
2022-10-20T15:24:27.601Z,31.92
2022-10-20T15:26:00.352Z,31.38
2022-10-20T15:27:32.043Z,36.65
2022-10-20T15:29:04.332Z,34.20
2022-10-20T15:30:36.015Z,35.47
2022-10-20T15:32:08.384Z,34.03
2022-10-20T15:33:40.108Z,30.90
2022-10-20T15:35:13.983Z,31.80
2022-10-20T15:36:47.642Z,31.05
2022-10-20T15:38:22.714Z,33.00
2022-10-20T15:39:54.337Z,32.05
2022-10-20T15:41:27.001Z,30.20
2022-10-20T15:42:58.630Z,29.55
2022-10-20T15:44:30.807Z,30.33
2022-10-20T15:46:02.689Z,28.40
2022-10-20T15:47:34.316Z,28.80
2022-10-20T15:49:05.957Z,30.20
2022-10-20T15:50:39.152Z,29.23
2022-10-20T15:52:10.872Z,30.33
2022-10-20T15:53:46.304Z,31.85
2022-10-20T15:55:22.588Z,37.22
2022-10-20T15:56:54.245Z,34.45
2022-10-20T15:58:26.036Z,30.00
2022-10-20T15:59:57.671Z,29.50
2022-10-20T16:01:29.575Z,36.95
2022-10-20T16:03:01.274Z,30.90
2022-10-20T16:04:32.949Z,27.25
2022-10-20T16:06:06.144Z,28.70
2022-10-20T16:07:38.177Z,25.27
2022-10-20T16:09:12.018Z,31.77
2022-10-20T16:10:46.789Z,33.63
2022-10-20T16:12:18.409Z,33.42
2022-10-20T16:13:50.054Z,27.17
2022-10-20T16:15:21.652Z,29.75
2022-10-20T16:16:53.341Z,24.58
2022-10-20T16:18:25.043Z,29.58
2022-10-20T16:19:56.822Z,27.13
2022-10-20T16:21:29.790Z,28.38
2022-10-20T16:23:01.406Z,31.55
2022-10-20T16:24:32.996Z,29.30
2022-10-20T16:26:06.669Z,26.67
2022-10-20T16:27:38.751Z,32.58
2022-10-20T16:29:10.608Z,28.83
2022-10-20T16:30:42.208Z,26.70
2022-10-20T16:32:13.847Z,26.15
2022-10-20T16:33:46.028Z,34.33
2022-10-20T16:35:17.749Z,28.92
2022-10-20T16:36:50.798Z,25.75
2022-10-20T16:38:22.522Z,26.65
2022-10-20T16:39:54.260Z,28.55
2022-10-20T16:41:26.080Z,23.83
2022-10-20T16:42:59.371Z,24.02
2022-10-20T16:44:31.219Z,28.02
2022-10-20T16:46:04.615Z,27.33
2022-10-20T16:47:36.620Z,34.45
2022-10-20T16:49:08.537Z,34.20
2022-10-20T16:50:41.668Z,30.10
2022-10-20T16:52:14.643Z,28.20
2022-10-20T16:53:46.326Z,28.70
2022-10-20T16:55:18.085Z,28.02
2022-10-20T16:56:49.848Z,28.90
2022-10-20T16:58:21.486Z,25.92
2022-10-20T16:59:53.162Z,23.67
2022-10-20T17:01:24.874Z,22.77
2022-10-20T17:02:57.694Z,29.30
2022-10-20T17:04:29.373Z,27.73
2022-10-20T17:06:02.220Z,25.95
2022-10-20T17:07:35.701Z,27.85
2022-10-20T17:09:07.968Z,33.45
2022-10-20T17:10:39.686Z,30.48
2022-10-20T17:12:11.280Z,28.20
2022-10-20T17:13:43.022Z,27.65
2022-10-20T17:15:14.827Z,28.73
2022-10-20T17:16:47.333Z,24.63
2022-10-20T17:18:19.207Z,29.13
2022-10-20T17:19:50.842Z,26.35
2022-10-20T17:21:22.442Z,30.27
2022-10-20T17:22:55.893Z,33.75
2022-10-20T17:24:27.536Z,31.65
2022-10-20T17:26:00.875Z,36.92
2022-10-20T17:27:32.508Z,26.15
2022-10-20T17:29:04.170Z,27.55
2022-10-20T17:30:40.371Z,24.75
2022-10-20T17:32:14.438Z,29.85
2022-10-20T17:33:48.976Z,26.42
2022-10-20T17:35:20.582Z,27.30
2022-10-20T17:36:52.219Z,26.30
2022-10-20T17:38:25.558Z,34.45
2022-10-20T17:39:57.206Z,33.50
2022-10-20T17:41:29.236Z,35.42
2022-10-20T17:43:00.841Z,31.08
2022-10-20T17:44:32.462Z,32.58
2022-10-20T17:46:05.141Z,32.97
2022-10-20T17:47:36.755Z,34.58
2022-10-20T17:49:08.420Z,35.45
2022-10-20T17:50:40.094Z,42.00
2022-10-20T17:52:11.920Z,38.55
2022-10-20T17:53:46.002Z,39.53
2022-10-20T17:55:17.664Z,42.45
2022-10-20T17:56:52.507Z,41.95
2022-10-20T17:58:24.335Z,38.47
2022-10-20T17:59:58.669Z,38.67
2022-10-20T18:01:32.686Z,34.80
2022-10-20T18:03:04.420Z,36.15
2022-10-20T18:04:36.075Z,39.80
2022-10-20T18:06:09.140Z,36.03
2022-10-20T18:07:41.142Z,34.33
2022-10-20T18:09:15.108Z,37.83
2022-10-20T18:10:46.859Z,45.70
2022-10-20T18:12:18.542Z,35.72
2022-10-20T18:13:50.324Z,38.92
2022-10-20T18:15:21.910Z,36.08
2022-10-20T18:16:53.485Z,44.15
2022-10-20T18:18:25.183Z,39.13
2022-10-20T18:20:00.002Z,36.67
2022-10-20T18:21:32.093Z,35.60
2022-10-20T18:23:03.671Z,35.05
2022-10-20T18:24:37.290Z,32.10
2022-10-20T18:26:09.792Z,35.10
2022-10-20T18:27:41.506Z,32.80
2022-10-20T18:29:13.356Z,35.08
2022-10-20T18:30:45.438Z,33.50
2022-10-20T18:32:17.067Z,33.63
2022-10-20T18:33:49.253Z,35.38
2022-10-20T18:35:23.069Z,34.95
2022-10-20T18:36:54.852Z,36.25
2022-10-20T18:38:26.727Z,33.15
2022-10-20T18:40:00.784Z,36.50
2022-10-20T18:41:35.320Z,31.30
2022-10-20T18:43:06.949Z,33.65
2022-10-20T18:44:38.589Z,34.88
2022-10-20T18:46:10.325Z,35.03
2022-10-20T18:47:44.994Z,34.35
2022-10-20T18:49:19.636Z,37.38
2022-10-20T18:50:54.513Z,45.13
2022-10-20T18:52:26.191Z,35.08
2022-10-20T18:53:58.294Z,40.63
2022-10-20T18:55:31.240Z,30.60
2022-10-20T18:57:03.101Z,29.67
2022-10-20T18:58:36.457Z,28.55
2022-10-20T19:00:08.777Z,32.78
2022-10-20T19:01:40.699Z,35.65
2022-10-20T19:03:12.381Z,32.63
2022-10-20T19:04:44.038Z,29.00
2022-10-20T19:06:16.876Z,36.33
2022-10-20T19:07:48.553Z,35.85
2022-10-20T19:09:20.932Z,31.23
2022-10-20T19:10:54.041Z,32.22
2022-10-20T19:12:25.619Z,30.15
2022-10-20T19:13:57.653Z,34.05
2022-10-20T19:15:29.274Z,31.45
2022-10-20T19:17:00.901Z,32.25
2022-10-20T19:18:32.514Z,48.38
2022-10-20T19:20:04.720Z,35.65
2022-10-20T19:21:36.559Z,31.63
2022-10-20T19:23:08.177Z,39.47
2022-10-20T19:24:42.313Z,31.30
2022-10-20T19:26:17.217Z,34.97
2022-10-20T19:27:48.889Z,32.78
2022-10-20T19:29:21.811Z,34.20
2022-10-20T19:30:53.481Z,39.63
2022-10-20T19:32:25.113Z,37.10
2022-10-20T19:33:57.891Z,41.25
2022-10-20T19:35:29.560Z,34.13
2022-10-20T19:37:04.206Z,31.08
2022-10-20T19:38:36.455Z,33.63
2022-10-20T19:40:08.535Z,44.08
2022-10-20T19:41:44.799Z,30.50
2022-10-20T19:43:16.422Z,35.50
2022-10-20T19:44:48.088Z,34.60
2022-10-20T19:46:20.191Z,38.20
2022-10-20T19:47:51.798Z,39.42
2022-10-20T19:49:23.615Z,39.05
2022-10-20T19:50:55.384Z,33.67
2022-10-20T19:52:30.530Z,54.60
2022-10-20T19:54:02.424Z,38.40
2022-10-20T19:55:36.075Z,31.20
2022-10-20T19:57:09.035Z,35.42
2022-10-20T19:58:42.790Z,31.55
2022-10-20T20:00:17.556Z,39.33
2022-10-20T20:01:51.357Z,46.13
2022-10-20T20:03:23.021Z,39.60
2022-10-20T20:04:54.663Z,43.17
2022-10-20T20:06:26.575Z,37.53
2022-10-20T20:07:58.220Z,31.27
2022-10-20T20:09:30.096Z,38.20
2022-10-20T20:11:02.376Z,40.33
2022-10-20T20:12:38.207Z,50.25
2022-10-20T20:14:11.959Z,36.65
2022-10-20T20:15:43.639Z,50.65
2022-10-20T20:17:15.346Z,49.45
2022-10-20T20:18:46.993Z,35.65
2022-10-20T20:20:18.682Z,35.88